sensor_id;sensor_type;location;lat;lon;timestamp;P1;durP1;ratioP1;P2;durP2;ratioP2
27424;SDS011;15244;49.088;11.886;2024-01-07T00:01:08;12.07;;;8.30;;
27424;SDS011;15244;49.088;11.886;2024-01-07T00:06:11;8.80;;;7.90;;
27424;SDS011;15244;49.088;11.886;2024-01-07T00:11:13;11.55;;;8.40;;
27424;SDS011;15244;49.088;11.886;2024-01-07T00:16:15;9.30;;;7.97;;
27424;SDS011;15244;49.088;11.886;2024-01-07T00:21:17;11.23;;;7.97;;
27424;SDS011;15244;49.088;11.886;2024-01-07T00:26:18;9.98;;;7.20;;
27424;SDS011;15244;49.088;11.886;2024-01-07T00:31:20;12.05;;;7.78;;
27424;SDS011;15244;49.088;11.886;2024-01-07T00:36:22;7.90;;;7.10;;
27424;SDS011;15244;49.088;11.886;2024-01-07T00:41:23;10.25;;;6.78;;
27424;SDS011;15244;49.088;11.886;2024-01-07T00:46:26;10.95;;;7.03;;
27424;SDS011;15244;49.088;11.886;2024-01-07T00:51:27;11.77;;;7.53;;
27424;SDS011;15244;49.088;11.886;2024-01-07T00:56:29;10.85;;;7.20;;
27424;SDS011;15244;49.088;11.886;2024-01-07T01:01:31;7.97;;;7.28;;
27424;SDS011;15244;49.088;11.886;2024-01-07T01:06:33;11.00;;;8.00;;
27424;SDS011;15244;49.088;11.886;2024-01-07T01:11:35;10.13;;;8.18;;
27424;SDS011;15244;49.088;11.886;2024-01-07T01:16:36;11.23;;;8.23;;
27424;SDS011;15244;49.088;11.886;2024-01-07T01:21:38;9.85;;;8.02;;
27424;SDS011;15244;49.088;11.886;2024-01-07T01:26:39;10.63;;;8.23;;
27424;SDS011;15244;49.088;11.886;2024-01-07T01:31:41;10.35;;;8.23;;
27424;SDS011;15244;49.088;11.886;2024-01-07T01:36:43;12.05;;;8.77;;
27424;SDS011;15244;49.088;11.886;2024-01-07T01:41:45;8.55;;;7.65;;
27424;SDS011;15244;49.088;11.886;2024-01-07T01:46:46;9.57;;;8.57;;
27424;SDS011;15244;49.088;11.886;2024-01-07T01:51:49;9.77;;;8.55;;
27424;SDS011;15244;49.088;11.886;2024-01-07T01:56:51;13.05;;;8.63;;
27424;SDS011;15244;49.088;11.886;2024-01-07T02:01:53;10.90;;;8.95;;
27424;SDS011;15244;49.088;11.886;2024-01-07T02:06:56;11.80;;;8.75;;
27424;SDS011;15244;49.088;11.886;2024-01-07T02:12:04;13.20;;;9.60;;
27424;SDS011;15244;49.088;11.886;2024-01-07T02:17:07;12.65;;;9.70;;
27424;SDS011;15244;49.088;11.886;2024-01-07T02:22:09;10.82;;;9.10;;
27424;SDS011;15244;49.088;11.886;2024-01-07T02:27:12;12.00;;;9.40;;
27424;SDS011;15244;49.088;11.886;2024-01-07T02:32:13;10.73;;;8.70;;
27424;SDS011;15244;49.088;11.886;2024-01-07T02:37:15;13.45;;;10.23;;
27424;SDS011;15244;49.088;11.886;2024-01-07T02:42:16;14.68;;;10.63;;
27424;SDS011;15244;49.088;11.886;2024-01-07T02:47:18;13.45;;;10.50;;
27424;SDS011;15244;49.088;11.886;2024-01-07T02:52:20;18.35;;;10.63;;
27424;SDS011;15244;49.088;11.886;2024-01-07T02:57:21;17.27;;;10.80;;
27424;SDS011;15244;49.088;11.886;2024-01-07T03:02:23;15.13;;;10.65;;
27424;SDS011;15244;49.088;11.886;2024-01-07T03:07:25;13.98;;;10.50;;
27424;SDS011;15244;49.088;11.886;2024-01-07T03:12:26;17.15;;;11.52;;
27424;SDS011;15244;49.088;11.886;2024-01-07T03:17:28;16.95;;;11.75;;
27424;SDS011;15244;49.088;11.886;2024-01-07T03:22:29;16.88;;;11.68;;
27424;SDS011;15244;49.088;11.886;2024-01-07T03:27:31;18.08;;;11.82;;
27424;SDS011;15244;49.088;11.886;2024-01-07T03:32:33;14.75;;;11.60;;
27424;SDS011;15244;49.088;11.886;2024-01-07T03:37:34;18.73;;;11.30;;
27424;SDS011;15244;49.088;11.886;2024-01-07T03:42:36;14.02;;;11.25;;
27424;SDS011;15244;49.088;11.886;2024-01-07T03:47:38;16.95;;;11.68;;
27424;SDS011;15244;49.088;11.886;2024-01-07T03:52:40;14.57;;;11.82;;
27424;SDS011;15244;49.088;11.886;2024-01-07T03:57:41;17.60;;;11.57;;
27424;SDS011;15244;49.088;11.886;2024-01-07T04:02:43;17.85;;;12.73;;
27424;SDS011;15244;49.088;11.886;2024-01-07T04:08:03;17.08;;;11.75;;
27424;SDS011;15244;49.088;11.886;2024-01-07T04:13:05;16.38;;;11.52;;
27424;SDS011;15244;49.088;11.886;2024-01-07T04:18:07;18.80;;;12.82;;
27424;SDS011;15244;49.088;11.886;2024-01-07T04:23:08;15.35;;;11.45;;
27424;SDS011;15244;49.088;11.886;2024-01-07T04:28:10;15.88;;;11.25;;
27424;SDS011;15244;49.088;11.886;2024-01-07T04:33:12;17.42;;;11.77;;
27424;SDS011;15244;49.088;11.886;2024-01-07T04:38:14;15.90;;;11.45;;
27424;SDS011;15244;49.088;11.886;2024-01-07T04:43:15;14.38;;;11.18;;
27424;SDS011;15244;49.088;11.886;2024-01-07T04:48:17;14.63;;;11.68;;
27424;SDS011;15244;49.088;11.886;2024-01-07T04:53:19;17.00;;;11.32;;
27424;SDS011;15244;49.088;11.886;2024-01-07T04:58:20;14.30;;;10.80;;
27424;SDS011;15244;49.088;11.886;2024-01-07T05:03:22;13.38;;;11.07;;
27424;SDS011;15244;49.088;11.886;2024-01-07T05:08:23;15.32;;;11.15;;
27424;SDS011;15244;49.088;11.886;2024-01-07T05:13:27;17.50;;;11.43;;
27424;SDS011;15244;49.088;11.886;2024-01-07T05:18:29;14.82;;;11.20;;
27424;SDS011;15244;49.088;11.886;2024-01-07T05:23:30;15.52;;;10.70;;
27424;SDS011;15244;49.088;11.886;2024-01-07T05:28:32;14.60;;;11.35;;
27424;SDS011;15244;49.088;11.886;2024-01-07T05:33:33;16.17;;;11.82;;
27424;SDS011;15244;49.088;11.886;2024-01-07T05:38:35;16.98;;;11.20;;
27424;SDS011;15244;49.088;11.886;2024-01-07T05:43:37;15.90;;;11.02;;
27424;SDS011;15244;49.088;11.886;2024-01-07T05:48:46;17.85;;;11.88;;
27424;SDS011;15244;49.088;11.886;2024-01-07T05:53:50;16.48;;;12.52;;
27424;SDS011;15244;49.088;11.886;2024-01-07T05:58:51;18.63;;;12.18;;
27424;SDS011;15244;49.088;11.886;2024-01-07T06:03:53;17.13;;;11.48;;
27424;SDS011;15244;49.088;11.886;2024-01-07T06:08:54;16.88;;;11.50;;
27424;SDS011;15244;49.088;11.886;2024-01-07T06:13:56;15.75;;;10.20;;
27424;SDS011;15244;49.088;11.886;2024-01-07T06:18:57;15.60;;;11.15;;
27424;SDS011;15244;49.088;11.886;2024-01-07T06:23:59;18.60;;;11.73;;
27424;SDS011;15244;49.088;11.886;2024-01-07T06:29:01;18.13;;;11.38;;
27424;SDS011;15244;49.088;11.886;2024-01-07T06:34:02;21.55;;;11.25;;
27424;SDS011;15244;49.088;11.886;2024-01-07T06:39:04;18.08;;;12.02;;
27424;SDS011;15244;49.088;11.886;2024-01-07T06:44:06;17.50;;;11.25;;
27424;SDS011;15244;49.088;11.886;2024-01-07T06:49:08;17.83;;;11.50;;
27424;SDS011;15244;49.088;11.886;2024-01-07T06:54:10;14.82;;;11.18;;
27424;SDS011;15244;49.088;11.886;2024-01-07T06:59:15;18.73;;;11.93;;
27424;SDS011;15244;49.088;11.886;2024-01-07T07:04:17;19.80;;;11.77;;
27424;SDS011;15244;49.088;11.886;2024-01-07T07:09:18;15.95;;;11.32;;
27424;SDS011;15244;49.088;11.886;2024-01-07T07:14:20;18.05;;;11.15;;
27424;SDS011;15244;49.088;11.886;2024-01-07T07:19:22;14.40;;;10.27;;
27424;SDS011;15244;49.088;11.886;2024-01-07T07:24:23;14.02;;;9.98;;
27424;SDS011;15244;49.088;11.886;2024-01-07T07:29:25;13.07;;;10.10;;
27424;SDS011;15244;49.088;11.886;2024-01-07T07:34:26;13.27;;;9.02;;
27424;SDS011;15244;49.088;11.886;2024-01-07T07:39:28;13.52;;;9.18;;
27424;SDS011;15244;49.088;11.886;2024-01-07T07:44:30;11.98;;;8.88;;
27424;SDS011;15244;49.088;11.886;2024-01-07T07:49:31;11.88;;;8.57;;
27424;SDS011;15244;49.088;11.886;2024-01-07T07:54:33;10.02;;;8.27;;
27424;SDS011;15244;49.088;11.886;2024-01-07T07:59:36;18.40;;;8.30;;
27424;SDS011;15244;49.088;11.886;2024-01-07T08:04:38;11.18;;;7.72;;
27424;SDS011;15244;49.088;11.886;2024-01-07T08:09:42;12.13;;;8.70;;
27424;SDS011;15244;49.088;11.886;2024-01-07T08:14:44;8.95;;;7.28;;
27424;SDS011;15244;49.088;11.886;2024-01-07T08:19:45;11.80;;;7.50;;
27424;SDS011;15244;49.088;11.886;2024-01-07T08:24:47;9.45;;;7.95;;
27424;SDS011;15244;49.088;11.886;2024-01-07T08:29:49;8.73;;;7.22;;
27424;SDS011;15244;49.088;11.886;2024-01-07T08:34:50;9.68;;;7.72;;
27424;SDS011;15244;49.088;11.886;2024-01-07T08:39:52;8.38;;;7.32;;
27424;SDS011;15244;49.088;11.886;2024-01-07T08:44:53;11.13;;;8.32;;
27424;SDS011;15244;49.088;11.886;2024-01-07T08:49:55;10.30;;;8.13;;
27424;SDS011;15244;49.088;11.886;2024-01-07T08:54:57;11.85;;;8.00;;
27424;SDS011;15244;49.088;11.886;2024-01-07T08:59:58;8.60;;;7.70;;
27424;SDS011;15244;49.088;11.886;2024-01-07T09:05:00;9.32;;;8.23;;
27424;SDS011;15244;49.088;11.886;2024-01-07T09:10:01;10.43;;;8.50;;
27424;SDS011;15244;49.088;11.886;2024-01-07T09:15:04;11.90;;;8.95;;
27424;SDS011;15244;49.088;11.886;2024-01-07T09:20:09;11.52;;;8.82;;
27424;SDS011;15244;49.088;11.886;2024-01-07T09:25:12;13.52;;;9.65;;
27424;SDS011;15244;49.088;11.886;2024-01-07T09:30:13;10.65;;;9.05;;
27424;SDS011;15244;49.088;11.886;2024-01-07T09:35:18;14.05;;;9.77;;
27424;SDS011;15244;49.088;11.886;2024-01-07T09:40:20;15.45;;;10.95;;
27424;SDS011;15244;49.088;11.886;2024-01-07T09:45:22;12.75;;;10.82;;
27424;SDS011;15244;49.088;11.886;2024-01-07T09:50:24;15.55;;;11.75;;
27424;SDS011;15244;49.088;11.886;2024-01-07T09:55:32;17.60;;;12.55;;
27424;SDS011;15244;49.088;11.886;2024-01-07T10:00:38;15.77;;;11.90;;
27424;SDS011;15244;49.088;11.886;2024-01-07T10:05:41;19.85;;;12.90;;
27424;SDS011;15244;49.088;11.886;2024-01-07T10:10:43;17.95;;;12.75;;
27424;SDS011;15244;49.088;11.886;2024-01-07T10:15:47;17.98;;;12.38;;
27424;SDS011;15244;49.088;11.886;2024-01-07T10:20:49;21.95;;;13.60;;
27424;SDS011;15244;49.088;11.886;2024-01-07T10:25:51;18.73;;;13.02;;
27424;SDS011;15244;49.088;11.886;2024-01-07T10:30:56;20.98;;;14.05;;
27424;SDS011;15244;49.088;11.886;2024-01-07T10:36:01;18.48;;;13.23;;
27424;SDS011;15244;49.088;11.886;2024-01-07T10:41:06;19.42;;;12.90;;
27424;SDS011;15244;49.088;11.886;2024-01-07T10:46:10;17.98;;;12.57;;
27424;SDS011;15244;49.088;11.886;2024-01-07T10:51:15;19.80;;;13.13;;
27424;SDS011;15244;49.088;11.886;2024-01-07T10:56:18;17.25;;;11.98;;
27424;SDS011;15244;49.088;11.886;2024-01-07T11:01:24;16.33;;;11.77;;
27424;SDS011;15244;49.088;11.886;2024-01-07T11:06:31;22.02;;;11.85;;
27424;SDS011;15244;49.088;11.886;2024-01-07T11:11:38;18.48;;;12.50;;
27424;SDS011;15244;49.088;11.886;2024-01-07T11:16:44;17.73;;;12.38;;
27424;SDS011;15244;49.088;11.886;2024-01-07T11:21:45;17.00;;;12.18;;
27424;SDS011;15244;49.088;11.886;2024-01-07T11:26:47;20.05;;;11.60;;
27424;SDS011;15244;49.088;11.886;2024-01-07T11:31:49;19.58;;;11.98;;
27424;SDS011;15244;49.088;11.886;2024-01-07T11:36:52;15.70;;;11.23;;
27424;SDS011;15244;49.088;11.886;2024-01-07T11:41:53;14.98;;;10.85;;
27424;SDS011;15244;49.088;11.886;2024-01-07T11:46:55;17.80;;;12.20;;
27424;SDS011;15244;49.088;11.886;2024-01-07T11:51:57;17.75;;;12.52;;
27424;SDS011;15244;49.088;11.886;2024-01-07T11:56:59;18.85;;;12.63;;
27424;SDS011;15244;49.088;11.886;2024-01-07T12:02:00;18.02;;;12.52;;
27424;SDS011;15244;49.088;11.886;2024-01-07T12:07:04;20.80;;;12.57;;
27424;SDS011;15244;49.088;11.886;2024-01-07T12:12:06;20.88;;;12.35;;
27424;SDS011;15244;49.088;11.886;2024-01-07T12:17:08;19.52;;;12.00;;
27424;SDS011;15244;49.088;11.886;2024-01-07T12:22:14;20.10;;;12.82;;
27424;SDS011;15244;49.088;11.886;2024-01-07T12:27:19;16.38;;;12.10;;
27424;SDS011;15244;49.088;11.886;2024-01-07T12:32:28;19.45;;;12.10;;
27424;SDS011;15244;49.088;11.886;2024-01-07T12:37:30;19.65;;;12.27;;
27424;SDS011;15244;49.088;11.886;2024-01-07T12:42:32;18.00;;;11.52;;
27424;SDS011;15244;49.088;11.886;2024-01-07T12:47:34;15.95;;;12.07;;
27424;SDS011;15244;49.088;11.886;2024-01-07T12:52:36;14.20;;;10.68;;
27424;SDS011;15244;49.088;11.886;2024-01-07T12:57:38;20.20;;;12.48;;
27424;SDS011;15244;49.088;11.886;2024-01-07T13:02:41;17.02;;;11.85;;
27424;SDS011;15244;49.088;11.886;2024-01-07T13:07:43;20.20;;;12.60;;
27424;SDS011;15244;49.088;11.886;2024-01-07T13:12:44;18.48;;;11.57;;
27424;SDS011;15244;49.088;11.886;2024-01-07T13:17:51;16.25;;;12.00;;
27424;SDS011;15244;49.088;11.886;2024-01-07T13:22:52;17.48;;;11.73;;
27424;SDS011;15244;49.088;11.886;2024-01-07T13:27:54;18.30;;;11.40;;
27424;SDS011;15244;49.088;11.886;2024-01-07T13:32:55;17.00;;;11.35;;
27424;SDS011;15244;49.088;11.886;2024-01-07T13:37:59;21.30;;;12.45;;
27424;SDS011;15244;49.088;11.886;2024-01-07T13:43:01;19.50;;;11.45;;
27424;SDS011;15244;49.088;11.886;2024-01-07T13:48:04;17.90;;;12.32;;
27424;SDS011;15244;49.088;11.886;2024-01-07T13:53:09;16.48;;;11.85;;
27424;SDS011;15244;49.088;11.886;2024-01-07T13:58:10;21.48;;;11.63;;
27424;SDS011;15244;49.088;11.886;2024-01-07T14:03:12;16.85;;;12.48;;
27424;SDS011;15244;49.088;11.886;2024-01-07T14:08:13;18.00;;;12.18;;
27424;SDS011;15244;49.088;11.886;2024-01-07T14:13:15;19.40;;;12.65;;
27424;SDS011;15244;49.088;11.886;2024-01-07T14:18:17;19.02;;;12.77;;
27424;SDS011;15244;49.088;11.886;2024-01-07T14:23:23;20.90;;;13.95;;
27424;SDS011;15244;49.088;11.886;2024-01-07T14:28:25;19.63;;;12.38;;
27424;SDS011;15244;49.088;11.886;2024-01-07T14:33:26;21.55;;;12.27;;
27424;SDS011;15244;49.088;11.886;2024-01-07T14:38:28;24.42;;;13.07;;
27424;SDS011;15244;49.088;11.886;2024-01-07T14:43:30;22.02;;;12.55;;
27424;SDS011;15244;49.088;11.886;2024-01-07T14:48:32;16.92;;;11.40;;
27424;SDS011;15244;49.088;11.886;2024-01-07T14:53:34;22.45;;;13.27;;
27424;SDS011;15244;49.088;11.886;2024-01-07T14:58:35;20.50;;;12.70;;
27424;SDS011;15244;49.088;11.886;2024-01-07T15:03:37;22.40;;;13.40;;
27424;SDS011;15244;49.088;11.886;2024-01-07T15:08:39;18.63;;;11.48;;
27424;SDS011;15244;49.088;11.886;2024-01-07T15:13:42;18.38;;;11.68;;
27424;SDS011;15244;49.088;11.886;2024-01-07T15:18:45;21.38;;;12.32;;
27424;SDS011;15244;49.088;11.886;2024-01-07T15:23:47;26.05;;;12.65;;
27424;SDS011;15244;49.088;11.886;2024-01-07T15:28:48;17.38;;;11.05;;
27424;SDS011;15244;49.088;11.886;2024-01-07T15:33:50;20.30;;;11.98;;
27424;SDS011;15244;49.088;11.886;2024-01-07T15:38:52;20.13;;;12.13;;
27424;SDS011;15244;49.088;11.886;2024-01-07T15:43:53;24.35;;;11.27;;
27424;SDS011;15244;49.088;11.886;2024-01-07T15:48:55;17.35;;;10.70;;
27424;SDS011;15244;49.088;11.886;2024-01-07T15:53:57;13.77;;;10.05;;
27424;SDS011;15244;49.088;11.886;2024-01-07T15:58:58;15.35;;;9.45;;
27424;SDS011;15244;49.088;11.886;2024-01-07T16:04:00;16.13;;;10.20;;
27424;SDS011;15244;49.088;11.886;2024-01-07T16:09:02;13.45;;;8.73;;
27424;SDS011;15244;49.088;11.886;2024-01-07T16:14:04;17.35;;;9.50;;
27424;SDS011;15244;49.088;11.886;2024-01-07T16:19:05;14.85;;;9.30;;
27424;SDS011;15244;49.088;11.886;2024-01-07T16:24:07;11.90;;;8.57;;
27424;SDS011;15244;49.088;11.886;2024-01-07T16:29:09;16.75;;;8.27;;
27424;SDS011;15244;49.088;11.886;2024-01-07T16:34:10;12.40;;;8.48;;
27424;SDS011;15244;49.088;11.886;2024-01-07T16:39:12;11.82;;;8.13;;
27424;SDS011;15244;49.088;11.886;2024-01-07T16:44:14;12.60;;;8.50;;
27424;SDS011;15244;49.088;11.886;2024-01-07T16:49:16;13.32;;;8.63;;
27424;SDS011;15244;49.088;11.886;2024-01-07T16:54:21;12.77;;;8.50;;
27424;SDS011;15244;49.088;11.886;2024-01-07T16:59:22;14.45;;;8.40;;
27424;SDS011;15244;49.088;11.886;2024-01-07T17:04:26;11.48;;;7.25;;
27424;SDS011;15244;49.088;11.886;2024-01-07T17:09:27;11.48;;;7.95;;
27424;SDS011;15244;49.088;11.886;2024-01-07T17:14:29;10.23;;;7.60;;
27424;SDS011;15244;49.088;11.886;2024-01-07T17:19:31;11.70;;;7.45;;
27424;SDS011;15244;49.088;11.886;2024-01-07T17:24:32;9.13;;;8.23;;
27424;SDS011;15244;49.088;11.886;2024-01-07T17:29:35;9.25;;;7.25;;
27424;SDS011;15244;49.088;11.886;2024-01-07T17:34:37;9.10;;;7.05;;
27424;SDS011;15244;49.088;11.886;2024-01-07T17:39:39;8.00;;;6.35;;
27424;SDS011;15244;49.088;11.886;2024-01-07T17:44:41;10.07;;;7.00;;
27424;SDS011;15244;49.088;11.886;2024-01-07T17:49:44;9.02;;;6.97;;
27424;SDS011;15244;49.088;11.886;2024-01-07T17:54:46;8.55;;;6.88;;
27424;SDS011;15244;49.088;11.886;2024-01-07T17:59:48;7.00;;;5.85;;
27424;SDS011;15244;49.088;11.886;2024-01-07T18:04:50;8.23;;;6.13;;
27424;SDS011;15244;49.088;11.886;2024-01-07T18:09:52;6.45;;;5.82;;
27424;SDS011;15244;49.088;11.886;2024-01-07T18:14:53;6.38;;;5.78;;
27424;SDS011;15244;49.088;11.886;2024-01-07T18:19:57;6.60;;;6.03;;
27424;SDS011;15244;49.088;11.886;2024-01-07T18:25:00;6.90;;;6.28;;
27424;SDS011;15244;49.088;11.886;2024-01-07T18:30:01;6.90;;;6.22;;
27424;SDS011;15244;49.088;11.886;2024-01-07T18:35:04;6.80;;;6.05;;
27424;SDS011;15244;49.088;11.886;2024-01-07T18:40:06;9.63;;;6.13;;
27424;SDS011;15244;49.088;11.886;2024-01-07T18:45:10;6.40;;;5.60;;
27424;SDS011;15244;49.088;11.886;2024-01-07T18:50:13;6.43;;;5.82;;
27424;SDS011;15244;49.088;11.886;2024-01-07T18:55:16;5.70;;;5.20;;
27424;SDS011;15244;49.088;11.886;2024-01-07T19:00:21;6.43;;;5.40;;
27424;SDS011;15244;49.088;11.886;2024-01-07T19:05:23;5.45;;;5.00;;
27424;SDS011;15244;49.088;11.886;2024-01-07T19:10:25;7.07;;;6.32;;
27424;SDS011;15244;49.088;11.886;2024-01-07T19:15:28;5.57;;;5.07;;
27424;SDS011;15244;49.088;11.886;2024-01-07T19:20:30;5.90;;;5.32;;
27424;SDS011;15244;49.088;11.886;2024-01-07T19:25:32;5.82;;;5.32;;
27424;SDS011;15244;49.088;11.886;2024-01-07T19:30:37;5.90;;;5.30;;
27424;SDS011;15244;49.088;11.886;2024-01-07T19:35:39;5.43;;;4.95;;
27424;SDS011;15244;49.088;11.886;2024-01-07T19:40:41;5.50;;;5.00;;
27424;SDS011;15244;49.088;11.886;2024-01-07T19:45:43;5.70;;;5.25;;
27424;SDS011;15244;49.088;11.886;2024-01-07T19:50:46;6.05;;;5.55;;
27424;SDS011;15244;49.088;11.886;2024-01-07T19:55:48;5.35;;;4.80;;
27424;SDS011;15244;49.088;11.886;2024-01-07T20:00:53;5.82;;;4.70;;
27424;SDS011;15244;49.088;11.886;2024-01-07T20:05:54;5.00;;;4.60;;
27424;SDS011;15244;49.088;11.886;2024-01-07T20:10:56;4.82;;;4.53;;
27424;SDS011;15244;49.088;11.886;2024-01-07T20:16:01;4.93;;;4.35;;
27424;SDS011;15244;49.088;11.886;2024-01-07T20:21:04;5.10;;;4.38;;
27424;SDS011;15244;49.088;11.886;2024-01-07T20:26:06;4.80;;;4.38;;
27424;SDS011;15244;49.088;11.886;2024-01-07T20:31:08;4.40;;;4.00;;
27424;SDS011;15244;49.088;11.886;2024-01-07T20:36:11;4.40;;;4.00;;
27424;SDS011;15244;49.088;11.886;2024-01-07T20:41:13;4.63;;;3.60;;
27424;SDS011;15244;49.088;11.886;2024-01-07T20:46:15;5.03;;;3.90;;
27424;SDS011;15244;49.088;11.886;2024-01-07T20:51:17;3.80;;;3.50;;
27424;SDS011;15244;49.088;11.886;2024-01-07T20:56:19;4.18;;;3.88;;
27424;SDS011;15244;49.088;11.886;2024-01-07T21:01:25;4.00;;;3.70;;
27424;SDS011;15244;49.088;11.886;2024-01-07T21:06:28;3.27;;;2.93;;
27424;SDS011;15244;49.088;11.886;2024-01-07T21:11:30;5.43;;;4.00;;
27424;SDS011;15244;49.088;11.886;2024-01-07T21:16:32;4.10;;;3.80;;
27424;SDS011;15244;49.088;11.886;2024-01-07T21:21:37;4.75;;;3.53;;
27424;SDS011;15244;49.088;11.886;2024-01-07T21:26:41;5.65;;;3.97;;
27424;SDS011;15244;49.088;11.886;2024-01-07T21:31:44;4.07;;;3.78;;
27424;SDS011;15244;49.088;11.886;2024-01-07T21:36:49;4.25;;;3.95;;
27424;SDS011;15244;49.088;11.886;2024-01-07T21:41:50;4.28;;;3.88;;
27424;SDS011;15244;49.088;11.886;2024-01-07T21:46:52;3.70;;;3.40;;
27424;SDS011;15244;49.088;11.886;2024-01-07T21:51:55;3.72;;;3.42;;
27424;SDS011;15244;49.088;11.886;2024-01-07T21:56:57;4.30;;;3.67;;
27424;SDS011;15244;49.088;11.886;2024-01-07T22:01:59;3.90;;;3.60;;
27424;SDS011;15244;49.088;11.886;2024-01-07T22:07:00;4.78;;;3.97;;
27424;SDS011;15244;49.088;11.886;2024-01-07T22:12:02;4.18;;;3.83;;
27424;SDS011;15244;49.088;11.886;2024-01-07T22:17:04;4.13;;;3.83;;
27424;SDS011;15244;49.088;11.886;2024-01-07T22:22:06;3.88;;;3.58;;
27424;SDS011;15244;49.088;11.886;2024-01-07T22:27:08;3.95;;;3.67;;
27424;SDS011;15244;49.088;11.886;2024-01-07T22:32:09;3.92;;;3.63;;
27424;SDS011;15244;49.088;11.886;2024-01-07T22:37:11;4.07;;;3.78;;
27424;SDS011;15244;49.088;11.886;2024-01-07T22:42:13;3.53;;;3.22;;
27424;SDS011;15244;49.088;11.886;2024-01-07T22:47:15;3.67;;;3.42;;
27424;SDS011;15244;49.088;11.886;2024-01-07T22:52:17;3.70;;;3.40;;
27424;SDS011;15244;49.088;11.886;2024-01-07T22:57:23;4.03;;;3.38;;
27424;SDS011;15244;49.088;11.886;2024-01-07T23:02:25;6.10;;;4.28;;
27424;SDS011;15244;49.088;11.886;2024-01-07T23:07:27;4.15;;;3.70;;
27424;SDS011;15244;49.088;11.886;2024-01-07T23:12:28;3.40;;;3.00;;
27424;SDS011;15244;49.088;11.886;2024-01-07T23:17:30;3.38;;;3.13;;
27424;SDS011;15244;49.088;11.886;2024-01-07T23:22:32;3.75;;;3.42;;
27424;SDS011;15244;49.088;11.886;2024-01-07T23:27:37;3.15;;;2.95;;
27424;SDS011;15244;49.088;11.886;2024-01-07T23:32:41;2.90;;;2.70;;
27424;SDS011;15244;49.088;11.886;2024-01-07T23:37:43;3.75;;;3.35;;
27424;SDS011;15244;49.088;11.886;2024-01-07T23:42:45;4.35;;;3.67;;
27424;SDS011;15244;49.088;11.886;2024-01-07T23:47:46;3.72;;;3.42;;
27424;SDS011;15244;49.088;11.886;2024-01-07T23:52:48;3.22;;;3.00;;
27424;SDS011;15244;49.088;11.886;2024-01-07T23:57:50;3.95;;;3.53;;
